Details for BA Comair (South Africa) at FAOR




Go Back


Latest METAR
Local Time

FAOR 212300Z 26003KT CAVOK 11/02 Q1030 NOSIG

22/06/2018, 01:31:28

Description
Results
BA Comair (South Africa) Logo
Number of Pilots based at FAOR
0 Pilots Based here
Number of BA Comair (South Africa) Flights Departed from FAOR
0 Flights Departed
Number of BA Comair (South Africa) Flights Arrived at FAOR
0 Flights Arrived
Number of BA Comair (South Africa) Schedules Departing from FAOR
32 Schedules
Number of BA Comair (South Africa) Schedules Arriving at FAOR
28 Schedules
Number of BA Comair (South Africa) Schedules Departing from FAOR availible today
27 Schedules Today
Number of BA Comair (South Africa) Schedules Arriving at FAOR availible today
28 Schedules Today
Average Landing Rate at FAOR
-207 fpm
BA Comair (South Africa) Average Landing Rate at FAOR
0 fpm
Total Fuel Purchased at FAOR by BA Comair (South Africa)
0.00 kgs / 0.00 lbs

Pilots Based at FAOR


Pilot ID
Pilot Name
Pilot Rank
No. of Flights
No. of Flying Hours
There are no pilots assigned to this hub!   Will you be the first?
Content